createdAt,value
2018-05-26T00:00:23.019Z,98256.83
2018-05-26T00:02:49.300Z,98256.42
2018-05-26T00:05:15.570Z,98252.53
2018-05-26T00:07:41.819Z,98253.15
2018-05-26T00:10:14.954Z,98249.60
2018-05-26T00:12:41.206Z,98246.56
2018-05-26T00:15:07.550Z,98257.14
2018-05-26T00:17:33.811Z,98256.27
2018-05-26T00:20:00.064Z,98254.98
2018-05-26T00:22:26.319Z,98256.54
2018-05-26T00:24:52.579Z,98246.72
2018-05-26T00:27:18.855Z,98252.47
2018-05-26T00:29:45.115Z,98253.37
2018-05-26T00:32:11.383Z,98256.02
2018-05-26T00:34:37.638Z,98258.06
2018-05-26T00:37:03.895Z,98261.89
2018-05-26T00:39:30.119Z,98261.78
2018-05-26T00:41:56.399Z,98265.88
2018-05-26T00:44:22.627Z,98267.78
2018-05-26T00:46:48.885Z,98274.29
2018-05-26T00:49:15.130Z,98275.05
2018-05-26T00:51:41.371Z,98274.28
2018-05-26T00:54:07.626Z,98272.13
2018-05-26T00:56:33.887Z,98273.53
2018-05-26T00:59:00.158Z,98275.04
2018-05-26T01:01:26.421Z,98275.42
2018-05-26T01:03:52.666Z,98276.05
2018-05-26T01:06:18.910Z,98270.20
2018-05-26T01:08:45.191Z,98274.14
2018-05-26T01:11:11.484Z,98272.88
2018-05-26T01:13:37.736Z,98270.31
2018-05-26T01:16:03.999Z,98273.00
2018-05-26T01:18:30.222Z,98278.87
2018-05-26T01:20:56.490Z,98282.42
2018-05-26T01:23:22.873Z,98280.50
2018-05-26T01:25:49.129Z,98283.19
2018-05-26T01:28:15.378Z,98283.79
2018-05-26T01:30:41.643Z,98279.84
2018-05-26T01:33:07.871Z,98276.41
2018-05-26T01:35:34.095Z,98281.38
2018-05-26T01:38:00.350Z,98277.05
2018-05-26T01:40:26.570Z,98276.55
2018-05-26T01:42:52.827Z,98277.69
2018-05-26T01:45:19.086Z,98274.23
2018-05-26T01:47:45.371Z,98278.20
2018-05-26T01:50:11.602Z,98270.43
2018-05-26T01:52:37.938Z,98272.33
2018-05-26T01:55:04.187Z,98273.45
2018-05-26T01:57:30.438Z,98266.08
2018-05-26T01:59:56.708Z,98273.98
2018-05-26T02:02:22.967Z,98275.76
2018-05-26T02:04:49.207Z,98273.83
2018-05-26T02:07:15.431Z,98275.11
2018-05-26T02:09:41.686Z,98278.18
2018-05-26T02:12:07.898Z,98276.13
2018-05-26T02:14:34.185Z,98278.41
2018-05-26T02:17:00.490Z,98273.69
2018-05-26T02:19:26.738Z,98271.52
2018-05-26T02:21:53.059Z,98273.81
2018-05-26T02:24:19.334Z,98273.45
2018-05-26T02:26:45.615Z,98273.70
2018-05-26T02:29:11.850Z,98269.88
2018-05-26T02:31:38.091Z,98268.38
2018-05-26T02:34:04.348Z,98276.11
2018-05-26T02:36:30.636Z,98275.08
2018-05-26T02:38:56.890Z,98270.01
2018-05-26T02:41:23.119Z,98281.19
2018-05-26T02:43:49.414Z,98277.86
2018-05-26T02:46:15.663Z,98271.64
2018-05-26T02:48:41.991Z,98273.02
2018-05-26T02:51:08.275Z,98272.13
2018-05-26T02:53:34.555Z,98269.23
2018-05-26T02:56:00.873Z,98268.19
2018-05-26T02:58:27.198Z,98266.66
2018-05-26T03:00:53.435Z,98270.31
2018-05-26T03:03:19.743Z,98271.30
2018-05-26T03:05:52.047Z,98272.34
2018-05-26T03:08:24.292Z,98270.92
2018-05-26T03:10:56.671Z,98274.87
2018-05-26T03:13:28.988Z,98272.08
2018-05-26T03:16:01.292Z,98275.89
2018-05-26T03:18:27.523Z,98279.84
2018-05-26T03:20:53.751Z,98282.12
2018-05-26T03:23:20.079Z,98285.80
2018-05-26T03:25:46.314Z,98289.77
2018-05-26T03:28:12.626Z,98284.55
2018-05-26T03:30:38.940Z,98284.55
2018-05-26T03:33:05.167Z,98285.30
2018-05-26T03:35:31.430Z,98290.41
2018-05-26T03:37:57.778Z,98294.19
2018-05-26T03:40:24.083Z,98292.25
2018-05-26T03:42:50.375Z,98298.87
2018-05-26T03:45:16.680Z,98298.62
2018-05-26T03:47:42.897Z,98297.72
2018-05-26T03:50:09.140Z,98291.77
2018-05-26T03:52:35.395Z,98297.23
2018-05-26T04:08:36.759Z,98300.30
2018-05-26T04:11:03.043Z,98299.31
2018-05-26T04:13:29.295Z,98304.58
2018-05-26T04:15:55.527Z,98301.12
2018-05-26T04:18:21.839Z,98306.11
2018-05-26T04:20:48.086Z,98311.20
2018-05-26T04:23:14.338Z,98310.84
2018-05-26T04:25:40.558Z,98311.60
2018-05-26T04:28:06.865Z,98311.09
2018-05-26T04:30:33.097Z,98313.80
2018-05-26T04:32:59.358Z,98317.23
2018-05-26T04:35:25.674Z,98314.05
2018-05-26T04:37:51.903Z,98318.54
2018-05-26T04:40:18.264Z,98323.38
2018-05-26T04:42:44.498Z,98319.70
2018-05-26T04:45:10.747Z,98324.81
2018-05-26T04:47:36.982Z,98322.92
2018-05-26T04:50:03.252Z,98325.34
2018-05-26T04:52:29.486Z,98325.98
2018-05-26T04:54:55.710Z,98326.52
2018-05-26T04:57:22.014Z,98324.23
2018-05-26T04:59:48.227Z,98326.64
2018-05-26T05:02:14.461Z,98325.22
2018-05-26T05:04:40.715Z,98326.49
2018-05-26T05:07:06.968Z,98333.36
2018-05-26T05:09:33.195Z,98328.11
2018-05-26T05:11:59.443Z,98335.09
2018-05-26T05:14:25.698Z,98333.27
2018-05-26T05:16:51.975Z,98334.81
2018-05-26T05:19:18.259Z,98323.16
2018-05-26T05:21:44.490Z,98335.45
2018-05-26T05:24:10.745Z,98335.94
2018-05-26T05:26:37.900Z,98333.59
2018-05-26T05:29:04.154Z,98337.60
2018-05-26T05:31:30.455Z,98338.11
2018-05-26T05:33:56.742Z,98338.75
2018-05-26T05:36:23.024Z,98342.42
2018-05-26T05:38:49.310Z,98343.25
2018-05-26T05:41:15.563Z,98347.37
2018-05-26T05:43:41.794Z,98342.19
2018-05-26T05:46:08.045Z,98338.30
2018-05-26T05:48:34.305Z,98340.52
2018-05-26T05:51:00.567Z,98346.69
2018-05-26T05:53:26.843Z,98341.83
2018-05-26T05:55:53.107Z,98345.22
2018-05-26T05:58:19.370Z,98342.90
2018-05-26T06:00:45.599Z,98340.75
2018-05-26T06:03:11.890Z,98342.91
2018-05-26T06:05:38.221Z,98343.28
2018-05-26T06:08:04.470Z,98349.29
2018-05-26T06:10:30.719Z,98343.86
2018-05-26T06:12:56.982Z,98341.86
2018-05-26T06:15:23.318Z,98344.61
2018-05-26T06:17:49.663Z,98348.11
2018-05-26T06:20:16.022Z,98346.41
2018-05-26T06:22:42.258Z,98345.88
2018-05-26T06:25:08.506Z,98353.11
2018-05-26T06:27:34.747Z,98349.34
2018-05-26T06:30:01.078Z,98358.69
2018-05-26T06:32:27.360Z,98360.83
2018-05-26T06:34:53.776Z,98364.05
2018-05-26T06:37:20.051Z,98371.75
2018-05-26T06:39:46.786Z,98369.25
2018-05-26T06:42:13.067Z,98368.58
2018-05-26T06:44:39.298Z,98365.91
2018-05-26T06:47:05.595Z,98368.47
2018-05-26T06:49:31.890Z,98369.77
2018-05-26T06:51:58.184Z,98375.68
2018-05-26T06:54:24.418Z,98377.89
2018-05-26T06:56:50.654Z,98371.54
2018-05-26T06:59:16.886Z,98376.10
2018-05-26T07:01:43.160Z,98375.80
2018-05-26T07:04:09.386Z,98374.27
2018-05-26T07:06:35.696Z,98377.03
2018-05-26T07:09:01.974Z,98376.75
2018-05-26T07:11:28.211Z,98371.25
2018-05-26T07:13:54.459Z,98381.19
2018-05-26T07:16:20.702Z,98378.33
2018-05-26T07:18:46.979Z,98374.21
2018-05-26T07:21:13.215Z,98381.19
2018-05-26T07:23:39.465Z,98375.30
2018-05-26T07:26:05.767Z,98379.50
2018-05-26T07:28:31.999Z,98382.16
2018-05-26T07:30:58.274Z,98381.34
2018-05-26T07:33:24.506Z,98379.19
2018-05-26T07:35:50.759Z,98372.41
2018-05-26T07:38:17.023Z,98372.23
2018-05-26T07:40:43.274Z,98369.60
2018-05-26T07:43:09.527Z,98362.11
2018-05-26T07:45:35.798Z,98363.43
2018-05-26T07:48:02.070Z,98369.78
2018-05-26T07:50:28.321Z,98370.03
2018-05-26T07:52:54.591Z,98370.75
2018-05-26T07:55:20.859Z,98368.25
2018-05-26T07:57:47.174Z,98372.48
2018-05-26T08:00:13.372Z,98371.38
2018-05-26T08:02:39.673Z,98365.41
2018-05-26T08:05:05.927Z,98370.69
2018-05-26T08:07:32.206Z,98368.22
2018-05-26T08:09:58.492Z,98366.91
2018-05-26T08:12:24.715Z,98367.53
2018-05-26T08:14:50.966Z,98368.56
2018-05-26T08:17:17.254Z,98363.34
2018-05-26T08:19:43.487Z,98364.67
2018-05-26T08:22:09.751Z,98360.72
2018-05-26T08:24:36.048Z,98364.03
2018-05-26T08:27:02.371Z,98373.12
2018-05-26T08:29:28.667Z,98368.33
2018-05-26T08:31:54.975Z,98369.09
2018-05-26T08:34:21.248Z,98373.22
2018-05-26T08:36:47.581Z,98374.29
2018-05-26T08:39:13.890Z,98369.56
2018-05-26T08:41:40.238Z,98375.75
2018-05-26T08:44:06.546Z,98376.05
2018-05-26T08:46:39.774Z,98367.09
2018-05-26T08:49:05.999Z,98366.42
2018-05-26T08:51:32.210Z,98368.44
2018-05-26T08:53:58.542Z,98368.89
2018-05-26T08:56:24.833Z,98368.63
2018-05-26T08:58:51.111Z,98371.61
2018-05-26T09:01:17.335Z,98366.27
2018-05-26T09:03:43.615Z,98368.88
2018-05-26T09:06:09.879Z,98365.44
2018-05-26T09:08:36.127Z,98365.77
2018-05-26T09:11:02.437Z,98365.45
2018-05-26T09:13:28.689Z,98366.02
2018-05-26T09:15:55.190Z,98362.58
2018-05-26T09:18:21.410Z,98359.67
2018-05-26T09:20:47.671Z,98355.28
2018-05-26T09:23:13.991Z,98351.23
2018-05-26T09:25:40.319Z,98354.86
2018-05-26T09:28:06.653Z,98358.82
2018-05-26T09:30:32.931Z,98352.82
2018-05-26T09:32:59.158Z,98350.23
2018-05-26T09:35:25.415Z,98353.88
2018-05-26T09:37:51.662Z,98347.94
2018-05-26T09:40:17.914Z,98347.53
2018-05-26T09:42:44.218Z,98353.05
2018-05-26T09:45:10.450Z,98352.02
2018-05-26T09:47:36.778Z,98346.65
2018-05-26T09:50:03.067Z,98353.72
2018-05-26T09:52:29.375Z,98343.53
2018-05-26T09:54:55.651Z,98348.23
2018-05-26T09:57:21.928Z,98336.70
2018-05-26T09:59:48.239Z,98339.04
2018-05-26T10:02:14.546Z,98338.77
2018-05-26T10:04:40.795Z,98336.39
2018-05-26T10:07:07.098Z,98333.81
2018-05-26T10:09:33.366Z,98340.53
2018-05-26T10:11:59.660Z,98340.59
2018-05-26T10:14:25.906Z,98336.90
2018-05-26T10:16:52.158Z,98332.08
2018-05-26T10:19:18.384Z,98339.02
2018-05-26T10:21:44.704Z,98342.31
2018-05-26T10:24:10.990Z,98347.97
2018-05-26T10:26:37.275Z,98342.55
2018-05-26T10:29:03.605Z,98336.83
2018-05-26T10:31:29.888Z,98346.30
2018-05-26T10:33:56.118Z,98342.97
2018-05-26T10:36:22.411Z,98337.57
2018-05-26T10:38:48.675Z,98332.75
2018-05-26T10:41:14.917Z,98338.85
2018-05-26T10:43:41.162Z,98339.41
2018-05-26T10:46:19.399Z,98338.77
2018-05-26T10:48:45.702Z,98339.12
2018-05-26T10:51:12.019Z,98340.37
2018-05-26T10:53:38.302Z,98346.88
2018-05-26T10:56:04.548Z,98346.30
2018-05-26T10:58:30.827Z,98342.22
2018-05-26T11:00:57.062Z,98340.90
2018-05-26T11:03:23.344Z,98344.48
2018-05-26T11:05:49.622Z,98348.45
2018-05-26T11:08:15.906Z,98345.86
2018-05-26T11:10:42.283Z,98341.13
2018-05-26T11:13:08.516Z,98352.40
2018-05-26T11:15:34.802Z,98344.44
2018-05-26T11:18:01.385Z,98344.51
2018-05-26T11:20:27.462Z,98344.83
2018-05-26T11:22:53.700Z,98344.27
2018-05-26T11:25:19.982Z,98343.31
2018-05-26T11:27:46.266Z,98338.38
2018-05-26T11:30:12.503Z,98332.98
2018-05-26T11:32:39.295Z,98340.80
2018-05-26T11:35:05.532Z,98340.28
2018-05-26T11:37:31.804Z,98342.91
2018-05-26T11:39:58.046Z,98338.67
2018-05-26T12:59:21.686Z,98317.98
2018-05-26T13:01:47.926Z,98315.92
2018-05-26T13:04:14.198Z,98312.45
2018-05-26T13:06:40.426Z,98305.91
2018-05-26T13:09:06.724Z,98311.72
2018-05-26T13:11:32.965Z,98310.26
2018-05-26T13:13:59.212Z,98309.73
2018-05-26T13:16:25.486Z,98310.56
2018-05-26T13:18:51.738Z,98315.72
2018-05-26T13:21:18.002Z,98308.87
2018-05-26T13:23:44.275Z,98304.77
2018-05-26T13:26:10.499Z,98304.64
2018-05-26T13:28:36.760Z,98309.69
2018-05-26T13:31:03.070Z,98307.41
2018-05-26T13:33:29.406Z,98296.74
2018-05-26T13:35:55.657Z,98301.61
2018-05-26T13:38:21.890Z,98296.02
2018-05-26T13:40:48.148Z,98289.58
2018-05-26T13:43:14.363Z,98293.42
2018-05-26T13:45:40.582Z,98294.64
2018-05-26T13:48:06.847Z,98291.50
2018-05-26T13:50:33.181Z,98286.16
2018-05-26T13:52:59.441Z,98288.63
2018-05-26T13:55:25.859Z,98280.67
2018-05-26T13:57:52.098Z,98281.02
2018-05-26T14:00:18.390Z,98278.02
2018-05-26T14:02:44.731Z,98281.79
2018-05-26T14:05:10.991Z,98283.57
2018-05-26T14:07:37.361Z,98283.21
2018-05-26T14:10:03.628Z,98282.83
2018-05-26T14:12:30.083Z,98286.57
2018-05-26T14:14:56.333Z,98286.95
2018-05-26T14:17:22.672Z,98276.42
2018-05-26T14:19:48.953Z,98287.89
2018-05-26T14:22:15.194Z,98284.77
2018-05-26T14:24:41.719Z,98279.36
2018-05-26T14:27:07.993Z,98283.57
2018-05-26T14:29:34.278Z,98285.27
2018-05-26T14:32:00.538Z,98281.06
2018-05-26T14:34:27.550Z,98279.69
2018-05-26T14:36:53.982Z,98275.08
2018-05-26T14:39:20.228Z,98274.73
2018-05-26T14:41:46.613Z,98267.98
2018-05-26T14:44:12.858Z,98269.21
2018-05-26T14:46:39.089Z,98266.55
2018-05-26T14:49:05.567Z,98268.19
2018-05-26T14:51:31.847Z,98260.12
2018-05-26T14:53:58.103Z,98261.00
2018-05-26T14:56:24.348Z,98263.97
2018-05-26T14:58:50.625Z,98264.78
2018-05-26T15:01:16.877Z,98266.32
2018-05-26T15:03:43.157Z,98260.45
2018-05-26T15:06:09.403Z,98260.33
2018-05-26T15:08:35.679Z,98257.88
2018-05-26T15:11:01.962Z,98262.52
2018-05-26T15:13:28.251Z,98255.64
2018-05-26T15:15:54.622Z,98258.40
2018-05-26T15:18:20.854Z,98258.25
2018-05-26T15:20:47.198Z,98246.42
2018-05-26T15:23:13.435Z,98253.52
2018-05-26T15:25:39.651Z,98247.19
2018-05-26T15:28:05.902Z,98245.03
2018-05-26T15:30:32.152Z,98244.64
2018-05-26T15:32:58.374Z,98251.11
2018-05-26T15:35:24.638Z,98243.48
2018-05-26T15:37:50.862Z,98246.53
2018-05-26T15:40:17.163Z,98240.47
2018-05-26T15:42:43.462Z,98243.27
2018-05-26T15:45:09.682Z,98245.55
2018-05-26T15:47:35.962Z,98238.45
2018-05-26T15:50:02.291Z,98233.20
2018-05-26T15:52:28.562Z,98239.38
2018-05-26T15:54:54.858Z,98239.93
2018-05-26T15:57:21.118Z,98239.95
2018-05-26T15:59:47.354Z,98238.27
2018-05-26T16:02:14.255Z,98240.38
2018-05-26T16:04:40.515Z,98241.53
2018-05-26T16:07:06.731Z,98245.44
2018-05-26T16:09:32.963Z,98247.63
2018-05-26T16:11:59.218Z,98236.40
2018-05-26T16:14:25.441Z,98244.37
2018-05-26T16:16:51.707Z,98244.30
2018-05-26T16:19:17.951Z,98249.27
2018-05-26T16:21:44.230Z,98246.25
2018-05-26T16:24:10.467Z,98247.11
2018-05-26T16:26:36.914Z,98243.75
2018-05-26T16:29:03.266Z,98241.88
2018-05-26T16:31:29.786Z,98250.55
2018-05-26T16:33:56.081Z,98250.04
2018-05-26T16:36:22.359Z,98252.50
2018-05-26T16:38:48.638Z,98249.80
2018-05-26T16:41:14.895Z,98253.69
2018-05-26T16:43:41.172Z,98257.44
2018-05-26T16:46:07.614Z,98252.45
2018-05-26T16:48:33.891Z,98251.94
2018-05-26T16:51:00.127Z,98254.05
2018-05-26T16:53:26.375Z,98251.78
2018-05-26T16:55:52.836Z,98255.45
2018-05-26T16:58:19.279Z,98260.98
2018-05-26T17:00:45.530Z,98257.59
2018-05-26T17:03:11.775Z,98258.44
2018-05-26T17:05:39.201Z,98257.99
2018-05-26T17:08:05.447Z,98259.24
2018-05-26T17:10:31.669Z,98259.78
2018-05-26T17:12:57.905Z,98261.66
2018-05-26T17:15:24.135Z,98259.94
2018-05-26T17:17:50.416Z,98259.81
2018-05-26T17:20:16.639Z,98265.00
2018-05-26T17:22:42.880Z,98263.16
2018-05-26T17:25:09.148Z,98265.49
2018-05-26T17:27:35.377Z,98259.43
2018-05-26T17:30:01.690Z,98259.38
2018-05-26T17:32:27.958Z,98261.53
2018-05-26T17:34:54.251Z,98257.29
2018-05-26T17:37:20.612Z,98256.90
2018-05-26T17:39:46.883Z,98255.15
2018-05-26T17:42:13.147Z,98256.80
2018-05-26T17:44:39.386Z,98251.53
2018-05-26T17:47:05.660Z,98247.78
2018-05-26T17:49:31.901Z,98254.59
2018-05-26T17:51:58.129Z,98258.14
2018-05-26T17:54:24.382Z,98255.44
2018-05-26T17:56:50.617Z,98253.47
2018-05-26T17:59:16.851Z,98256.35
2018-05-26T18:01:43.115Z,98254.67
2018-05-26T18:04:09.338Z,98260.33
2018-05-26T18:06:35.660Z,98256.56
2018-05-26T18:09:01.907Z,98258.27
2018-05-26T18:11:28.122Z,98252.22
2018-05-26T18:13:54.358Z,98245.16
2018-05-26T18:16:20.626Z,98248.85
2018-05-26T18:18:46.882Z,98247.36
2018-05-26T18:21:13.191Z,98245.95
2018-05-26T18:23:39.414Z,98248.52
2018-05-26T18:26:05.693Z,98244.56
2018-05-26T18:28:31.911Z,98251.70
2018-05-26T18:30:58.231Z,98247.34
2018-05-26T18:33:24.446Z,98251.71
2018-05-26T18:35:50.707Z,98253.80
2018-05-26T18:38:17.034Z,98251.80
2018-05-26T18:40:43.271Z,98253.22
2018-05-26T18:43:09.599Z,98250.30
2018-05-26T18:45:35.886Z,98251.13
2018-05-26T18:48:02.118Z,98262.67
2018-05-26T18:50:28.387Z,98262.94
2018-05-26T18:52:54.594Z,98256.70
2018-05-26T18:55:20.925Z,98262.49
2018-05-26T18:57:47.243Z,98263.13
2018-05-26T19:00:13.466Z,98266.20
2018-05-26T19:02:39.740Z,98270.91
2018-05-26T19:05:05.959Z,98271.06
2018-05-26T19:07:32.218Z,98277.73
2018-05-26T19:09:58.474Z,98279.55
2018-05-26T19:12:24.795Z,98285.70
2018-05-26T19:14:51.046Z,98287.63
2018-05-26T19:17:17.407Z,98286.25
2018-05-26T19:19:43.690Z,98290.53
2018-05-26T19:22:10.043Z,98293.80
2018-05-26T19:24:36.271Z,98296.29
2018-05-26T19:27:02.494Z,98295.87
2018-05-26T19:29:28.750Z,98294.73
2018-05-26T19:31:54.963Z,98299.95
2018-05-26T19:34:21.270Z,98302.13
2018-05-26T19:36:47.534Z,98299.12
2018-05-26T19:39:13.770Z,98306.17
2018-05-26T19:41:40.021Z,98308.19
2018-05-26T19:44:06.304Z,98309.95
2018-05-26T19:46:32.541Z,98310.32
2018-05-26T19:48:58.873Z,98308.02
2018-05-26T19:51:25.154Z,98302.20
2018-05-26T19:53:51.403Z,98304.88
2018-05-26T19:56:17.838Z,98304.95
2018-05-26T19:58:44.070Z,98304.84
2018-05-26T20:01:10.393Z,98308.67
2018-05-26T20:03:36.647Z,98309.40
2018-05-26T20:06:02.937Z,98310.17
2018-05-26T20:08:29.506Z,98307.46
2018-05-26T20:10:55.739Z,98310.06
2018-05-26T20:13:22.057Z,98316.63
2018-05-26T20:15:48.302Z,98316.20
2018-05-26T20:18:14.531Z,98319.54
2018-05-26T20:20:40.846Z,98315.59
2018-05-26T20:23:07.104Z,98310.80
2018-05-26T20:25:33.367Z,98311.67
2018-05-26T20:27:59.603Z,98309.45
2018-05-26T20:30:25.836Z,98312.23
2018-05-26T20:32:52.105Z,98313.83
2018-05-26T20:35:18.415Z,98313.64
2018-05-26T20:37:44.707Z,98317.21
2018-05-26T20:40:11.026Z,98319.88
2018-05-26T20:42:37.282Z,98318.73
2018-05-26T20:45:03.605Z,98324.05
2018-05-26T20:47:30.091Z,98326.45
2018-05-26T20:49:56.418Z,98323.61
2018-05-26T20:52:22.693Z,98320.66
2018-05-26T20:54:49.103Z,98327.05
2018-05-26T20:57:15.367Z,98328.03
2018-05-26T20:59:41.638Z,98324.10
2018-05-26T21:02:07.959Z,98322.11
2018-05-26T21:04:34.191Z,98321.49
2018-05-26T21:07:00.453Z,98320.80
2018-05-26T21:09:26.729Z,98323.87
2018-05-26T21:11:53.038Z,98324.47
2018-05-26T21:14:19.331Z,98329.36
2018-05-26T21:16:45.569Z,98332.50
2018-05-26T21:19:11.813Z,98328.75
2018-05-26T21:21:38.070Z,98336.74
2018-05-26T21:24:04.328Z,98338.45
2018-05-26T21:26:30.598Z,98336.56
2018-05-26T21:28:56.829Z,98337.13
2018-05-26T21:31:23.061Z,98332.36
2018-05-26T21:33:49.326Z,98333.77
2018-05-26T21:36:15.643Z,98344.93
2018-05-26T21:38:41.907Z,98339.50
2018-05-26T21:41:08.140Z,98344.05
2018-05-26T21:43:34.378Z,98334.94
2018-05-26T21:46:00.646Z,98342.78
2018-05-26T21:48:26.884Z,98339.84
2018-05-26T21:50:53.166Z,98335.95
2018-05-26T21:53:19.402Z,98330.02
2018-05-26T21:55:45.650Z,98334.53
2018-05-26T21:58:12.016Z,98335.34
2018-05-26T22:00:38.303Z,98345.59
2018-05-26T22:03:04.574Z,98340.94
2018-05-26T22:05:30.870Z,98336.23
2018-05-26T22:07:57.094Z,98336.16
2018-05-26T22:10:23.382Z,98335.25
2018-05-26T22:12:49.660Z,98336.80
2018-05-26T22:15:15.962Z,98338.28
2018-05-26T22:17:42.190Z,98339.37
2018-05-26T22:20:08.412Z,98337.66
2018-05-26T22:22:34.670Z,98338.22
2018-05-26T22:25:00.898Z,98338.03
2018-05-26T22:27:27.162Z,98340.59
2018-05-26T22:29:53.450Z,98343.44
2018-05-26T22:32:19.702Z,98351.48
2018-05-26T22:34:45.974Z,98351.48
2018-05-26T22:37:12.216Z,98349.73
2018-05-26T22:39:38.498Z,98347.02
2018-05-26T22:42:04.810Z,98345.41
2018-05-26T22:44:31.034Z,98350.33
2018-05-26T22:46:57.286Z,98343.08
2018-05-26T22:49:23.597Z,98351.20
2018-05-26T22:51:49.864Z,98354.16
2018-05-26T22:54:16.103Z,98354.23
2018-05-26T22:56:42.334Z,98352.31
2018-05-26T22:59:08.620Z,98348.09
2018-05-26T23:01:34.898Z,98347.84
2018-05-26T23:04:01.142Z,98343.23
2018-05-26T23:06:27.370Z,98343.28
2018-05-26T23:08:53.623Z,98339.39
2018-05-26T23:11:19.868Z,98338.75
2018-05-26T23:13:46.106Z,98342.84
2018-05-26T23:16:12.358Z,98340.80
2018-05-26T23:18:38.615Z,98337.22
2018-05-26T23:21:04.872Z,98341.99
2018-05-26T23:23:31.140Z,98339.18
2018-05-26T23:25:57.438Z,98341.06
2018-05-26T23:28:23.742Z,98334.15
2018-05-26T23:30:49.978Z,98330.48
2018-05-26T23:33:16.209Z,98328.90
2018-05-26T23:35:42.475Z,98331.90
2018-05-26T23:38:08.759Z,98329.74
2018-05-26T23:40:35.028Z,98329.03
2018-05-26T23:43:01.319Z,98325.34
2018-05-26T23:45:27.555Z,98329.09
2018-05-26T23:47:53.798Z,98323.48
2018-05-26T23:50:20.038Z,98325.83
2018-05-26T23:52:46.367Z,98321.23
2018-05-26T23:55:12.625Z,98329.16
2018-05-26T23:57:38.882Z,98329.08
